Time;durP1;ratioP1;P1;durP2;ratioP2;P2;SDS_P1;SDS_P2;PMS_P1;PMS_P2;Temp;Humidity;BMP_temperature;BMP_pressure;BME280_temperature;BME280_humidity;BME280_pressure;Samples;Min_cycle;Max_cycle;Signal;HPM_P1;HPM_P2
2023/01/01 00:03:06;;;;;;;285.13;242.67;;;;;11.80;99201.00;;;;16609674;28;20815;-49
2023/01/01 00:11:10;;;;;;;292.57;260.77;;;;;11.90;99209.00;;;;16590821;28;20645;-48
2023/01/01 00:19:13;;;;;;;266.43;231.13;;;;;12.00;99224.00;;;;16579425;28;20326;-48
2023/01/01 00:27:16;;;;;;;234.90;181.50;;;;;12.10;99219.00;;;;16577033;28;20226;-48
2023/01/01 00:35:20;;;;;;;224.07;186.80;;;;;11.70;99210.00;;;;16600617;28;20310;-49
2023/01/01 00:43:22;;;;;;;224.57;176.50;;;;;12.10;99205.00;;;;16591203;28;20188;-46
2023/01/01 00:51:26;;;;;;;148.90;129.33;;;;;12.10;99199.00;;;;16592558;28;20219;-47
2023/01/01 00:59:28;;;;;;;126.53;105.33;;;;;11.50;99193.00;;;;16589215;28;20233;-47
2023/01/01 01:07:35;;;;;;;132.17;108.63;;;;;11.60;99190.00;;;;16601804;28;20584;-48
2023/01/01 01:15:38;;;;;;;111.00;89.63;;;;;11.50;99188.00;;;;16617745;28;20227;-47
2023/01/01 01:23:42;;;;;;;87.30;71.93;;;;;11.60;99177.00;;;;16604844;28;20205;-47
2023/01/01 01:31:45;;;;;;;106.83;87.53;;;;;11.30;99200.00;;;;16599086;28;20215;-47
2023/01/01 01:39:48;;;;;;;78.30;64.03;;;;;11.50;99194.00;;;;16616131;28;20227;-48
2023/01/01 01:47:54;;;;;;;58.30;48.37;;;;;11.40;99188.00;;;;16609723;28;20669;-48
2023/01/01 01:56:01;;;;;;;47.80;38.83;;;;;11.40;99191.00;;;;16603307;28;20602;-48
2023/01/01 02:04:04;;;;;;;41.40;33.57;;;;;11.50;99199.00;;;;16590018;28;20618;-48
2023/01/01 02:12:08;;;;;;;30.83;26.50;;;;;11.40;99205.00;;;;16595848;28;20824;-48
2023/01/01 02:20:23;;;;;;;26.00;22.90;;;;;12.00;99197.00;;;;16605423;28;20229;-48
2023/01/01 02:28:43;;;;;;;48.47;37.60;;;;;13.70;99184.00;;;;16595751;28;20276;-48
2023/01/01 02:36:50;;;;;;;32.97;27.77;;;;;14.20;99186.00;;;;16607123;28;20235;-48
2023/01/01 02:44:55;;;;;;;31.10;25.80;;;;;14.40;99180.00;;;;16611274;28;20235;-48
2023/01/01 02:53:07;;;;;;;27.90;24.90;;;;;14.60;99168.00;;;;16608830;28;20783;-47
2023/01/01 03:01:16;;;;;;;21.67;19.20;;;;;14.90;99188.00;;;;16601203;28;20284;-48
2023/01/01 03:09:24;;;;;;;21.33;17.63;;;;;14.00;99191.00;;;;16604110;28;20225;-48
2023/01/01 03:17:30;;;;;;;19.03;16.70;;;;;12.10;99197.00;;;;16608264;28;20233;-48
2023/01/01 03:25:36;;;;;;;21.87;17.30;;;;;11.60;99215.00;;;;16592287;28;20237;-47
2023/01/01 03:33:43;;;;;;;20.00;17.73;;;;;11.20;99233.00;;;;16581429;28;20285;-48
2023/01/01 03:41:50;;;;;;;21.53;18.23;;;;;11.10;99258.00;;;;16583829;28;20223;-48
2023/01/01 03:49:53;;;;;;;23.00;17.97;;;;;10.90;99276.00;;;;16580603;28;20216;-48
2023/01/01 03:57:59;;;;;;;21.93;15.93;;;;;11.10;99265.00;;;;16579388;28;20238;-47
2023/01/01 04:06:04;;;;;;;25.30;16.57;;;;;10.90;99268.00;;;;16580657;28;20860;-47
2023/01/01 04:14:06;;;;;;;17.53;13.07;;;;;11.20;99257.00;;;;16584670;28;20218;-49
2023/01/01 04:22:10;;;;;;;18.80;13.90;;;;;11.10;99261.00;;;;16591271;28;20229;-48
2023/01/01 04:30:14;;;;;;;17.07;13.87;;;;;10.90;99265.00;;;;16591128;28;20669;-49
2023/01/01 04:38:18;;;;;;;15.97;13.10;;;;;10.50;99261.00;;;;16597192;28;20233;-49
2023/01/01 04:46:22;;;;;;;16.23;12.80;;;;;10.70;99257.00;;;;16590600;28;20215;-49
2023/01/01 04:54:26;;;;;;;13.80;10.67;;;;;10.70;99243.00;;;;16581937;28;20300;-46
2023/01/01 05:02:28;;;;;;;18.40;11.30;;;;;10.60;99265.00;;;;16600651;28;20218;-46
2023/01/01 05:10:32;;;;;;;16.00;11.00;;;;;10.70;99275.00;;;;16602232;28;20225;-46
2023/01/01 05:18:35;;;;;;;13.00;9.20;;;;;10.80;99284.00;;;;16608627;28;20233;-46
2023/01/01 05:26:40;;;;;;;15.03;10.73;;;;;10.60;99296.00;;;;16601215;28;20225;-46
2023/01/01 05:34:43;;;;;;;11.30;8.80;;;;;10.70;99306.00;;;;16596035;28;20223;-49
2023/01/01 05:42:48;;;;;;;9.70;8.57;;;;;10.80;99296.00;;;;16607316;28;20772;-48
2023/01/01 05:50:51;;;;;;;10.57;7.97;;;;;10.80;99300.00;;;;16607505;28;20229;-49
2023/01/01 05:58:55;;;;;;;8.67;7.40;;;;;11.50;99305.00;;;;16592199;28;20237;-46
2023/01/01 06:06:58;;;;;;;9.60;7.77;;;;;12.20;99299.00;;;;16593517;28;20721;-45
2023/01/01 06:15:01;;;;;;;9.47;7.07;;;;;11.20;99316.00;;;;16600103;28;20226;-46
2023/01/01 06:23:04;;;;;;;10.17;8.03;;;;;10.70;99323.00;;;;16601380;28;20233;-46
2023/01/01 06:31:09;;;;;;;8.83;7.70;;;;;10.40;99321.00;;;;16591824;28;20222;-47
2023/01/01 06:39:12;;;;;;;10.57;7.40;;;;;10.40;99331.00;;;;16585569;28;20235;-48
2023/01/01 06:47:15;;;;;;;10.40;7.87;;;;;10.40;99335.00;;;;16566801;28;20592;-49
2023/01/01 06:55:18;;;;;;;11.30;8.07;;;;;10.40;99342.00;;;;16566712;28;20643;-49
2023/01/01 07:03:22;;;;;;;11.63;7.83;;;;;10.30;99347.00;;;;16577081;28;20223;-48
2023/01/01 07:11:25;;;;;;;10.27;7.60;;;;;10.70;99329.00;;;;16586396;28;20210;-49
2023/01/01 07:19:28;;;;;;;9.93;7.10;;;;;10.60;99344.00;;;;16595010;28;20346;-49
2023/01/01 07:27:31;;;;;;;10.63;8.23;;;;;10.40;99342.00;;;;16586816;28;20232;-49
2023/01/01 07:35:34;;;;;;;13.33;11.37;;;;;10.90;99349.00;;;;16596288;28;20221;-49
2023/01/01 07:43:37;;;;;;;35.97;27.30;;;;;11.70;99341.00;;;;16588692;28;20310;-49
2023/01/01 07:51:41;;;;;;;34.63;28.20;;;;;12.70;99349.00;;;;16604367;28;20206;-49
2023/01/01 07:59:43;;;;;;;32.53;22.67;;;;;13.00;99355.00;;;;16603766;28;20245;-49
2023/01/01 08:07:50;;;;;;;19.13;14.60;;;;;12.40;99391.00;;;;16604736;28;20234;-48
2023/01/01 08:15:54;;;;;;;8.30;6.90;;;;;11.70;99395.00;;;;16603390;28;20225;-49
2023/01/01 08:23:58;;;;;;;8.00;6.60;;;;;11.00;99402.00;;;;16603322;28;20231;-49
2023/01/01 08:32:00;;;;;;;8.90;8.10;;;;;11.70;99402.00;;;;16597992;28;20196;-49
2023/01/01 08:40:05;;;;;;;8.47;7.70;;;;;11.50;99403.00;;;;16604365;28;20265;-48
2023/01/01 08:48:07;;;;;;;11.00;9.13;;;;;12.20;99394.00;;;;16599589;28;20298;-49
2023/01/01 08:56:14;;;;;;;19.00;16.20;;;;;13.20;99400.00;;;;16594238;28;20222;-48
2023/01/01 09:04:17;;;;;;;12.53;9.30;;;;;13.80;99404.00;;;;16592288;28;20676;-49
2023/01/01 09:12:20;;;;;;;23.20;20.80;;;;;14.10;99405.00;;;;16598194;28;20866;-49
2023/01/01 09:20:24;;;;;;;17.03;15.23;;;;;13.90;99396.00;;;;16598459;28;20321;-49
2023/01/01 09:28:28;;;;;;;14.83;12.07;;;;;13.60;99400.00;;;;16594807;28;20260;-49
2023/01/01 09:36:32;;;;;;;10.43;9.10;;;;;13.80;99408.00;;;;16599154;28;20274;-50
2023/01/01 09:44:56;;;;;;;21.50;17.83;;;;;14.80;99402.00;;;;16595007;28;20639;-47
2023/01/01 09:53:00;;;;;;;14.30;12.80;;;;;15.30;99401.00;;;;16593667;28;20696;-51
2023/01/01 10:01:12;;;;;;;15.90;12.50;;;;;15.50;99404.00;;;;16590824;28;20235;-50
2023/01/01 10:09:20;;;;;;;13.73;12.33;;;;;16.00;99395.00;;;;16585813;28;20277;-50
2023/01/01 10:17:32;;;;;;;13.40;12.00;;;;;16.60;99396.00;;;;16593065;28;20727;-52
2023/01/01 10:25:36;;;;;;;13.40;12.20;;;;;17.10;99382.00;;;;16569778;28;20265;-52
2023/01/01 10:33:40;;;;;;;14.50;13.00;;;;;17.00;99385.00;;;;16590966;28;20204;-50
2023/01/01 10:41:43;;;;;;;15.00;12.80;;;;;17.10;99380.00;;;;16587074;28;20223;-50
2023/01/01 10:49:56;;;;;;;11.30;9.10;;;;;17.50;99383.00;;;;16589834;28;20226;-51
2023/01/01 10:58:00;;;;;;;10.73;9.10;;;;;17.80;99373.00;;;;16579924;28;20219;-48
2023/01/01 11:06:06;;;;;;;7.97;7.17;;;;;18.00;99365.00;;;;16587346;28;20249;-49
2023/01/01 11:14:18;;;;;;;7.70;7.00;;;;;18.20;99354.00;;;;16585066;28;20215;-51
2023/01/01 11:31:00;;;;;;;9.10;7.37;;;;;19.40;99334.00;;;;16819216;27;21046;-48
2023/01/01 11:39:12;;;;;;;11.33;10.03;;;;;20.20;99326.00;;;;16769739;28;20223;-49
2023/01/01 11:47:23;;;;;;;10.10;8.90;;;;;20.60;99297.00;;;;16769267;28;20762;-50
2023/01/01 11:55:41;;;;;;;9.03;8.13;;;;;20.50;99285.00;;;;16768027;28;20235;-50
2023/01/01 12:03:49;;;;;;;7.70;6.97;;;;;20.80;99281.00;;;;16765220;28;20687;-50
2023/01/01 12:11:53;;;;;;;11.73;10.57;;;;;21.50;99263.00;;;;16763415;28;20201;-52
2023/01/01 12:20:02;;;;;;;13.43;10.40;;;;;21.50;99261.00;;;;16765763;28;20259;-47
2023/01/01 12:28:15;;;;;;;8.23;6.97;;;;;21.90;99254.00;;;;16763466;28;20267;-50
2023/01/01 12:36:29;;;;;;;8.00;5.60;;;;;22.60;99242.00;;;;16729545;28;20345;-51
2023/01/01 12:44:41;;;;;;;5.27;4.77;;;;;23.50;99225.00;;;;16718815;28;20601;-50
2023/01/01 12:52:54;;;;;;;6.97;3.17;;;;;23.40;99217.00;;;;16720524;28;20200;-49
2023/01/01 13:01:00;;;;;;;3.87;3.47;;;;;23.90;99214.00;;;;16720045;28;20567;-50
2023/01/01 13:09:07;;;;;;;6.10;3.90;;;;;23.90;99221.00;;;;16720610;28;20236;-50
2023/01/01 13:17:20;;;;;;;6.57;5.03;;;;;23.60;99216.00;;;;16718783;28;20222;-49
2023/01/01 13:25:24;;;;;;;7.17;6.47;;;;;23.70;99210.00;;;;16717671;28;20232;-50
2023/01/01 13:33:29;;;;;;;5.53;5.03;;;;;23.00;99212.00;;;;16717273;28;20198;-50
2023/01/01 13:41:41;;;;;;;5.63;4.50;;;;;22.80;99205.00;;;;16717574;28;20226;-50
2023/01/01 13:49:57;;;;;;;10.17;6.83;;;;;22.30;99213.00;;;;16715318;28;20310;-50
2023/01/01 13:58:20;;;;;;;10.23;8.10;;;;;21.80;99202.00;;;;16714278;28;20264;-49
2023/01/01 14:06:27;;;;;;;9.83;8.13;;;;;21.50;99200.00;;;;16708799;28;20321;-49
2023/01/01 14:14:33;;;;;;;9.43;8.10;;;;;21.10;99194.00;;;;16716140;28;20218;-49
2023/01/01 14:22:35;;;;;;;12.20;8.07;;;;;20.60;99199.00;;;;16714077;28;20634;-47
2023/01/01 14:30:40;;;;;;;10.67;8.70;;;;;20.50;99211.00;;;;16714550;28;20232;-47
2023/01/01 14:38:44;;;;;;;56.83;45.50;;;;;18.80;99225.00;;;;16713724;28;20229;-47
2023/01/01 14:46:50;;;;;;;29.90;21.87;;;;;18.10;99221.00;;;;16709290;28;20785;-46
2023/01/01 14:54:53;;;;;;;24.17;14.63;;;;;17.20;99235.00;;;;16712486;28;20245;-47
2023/01/01 15:03:06;;;;;;;8.17;5.40;;;;;16.80;99242.00;;;;16712328;28;20694;-48
2023/01/01 15:11:08;;;;;;;10.70;7.80;;;;;17.20;99238.00;;;;16713109;28;20229;-48
2023/01/01 15:19:18;;;;;;;28.60;12.27;;;;;16.50;99244.00;;;;16710904;28;20225;-48
2023/01/01 15:27:24;;;;;;;13.00;8.30;;;;;16.50;99248.00;;;;16710205;28;20230;-47
2023/01/01 15:35:31;;;;;;;14.03;8.40;;;;;15.70;99243.00;;;;16711902;28;20815;-48
2023/01/01 15:43:33;;;;;;;14.53;12.20;;;;;15.30;99222.00;;;;16699767;28;20209;-47
2023/01/01 15:51:37;;;;;;;11.60;9.10;;;;;15.00;99221.00;;;;16704071;28;20717;-47
2023/01/01 15:59:43;;;;;;;14.57;8.80;;;;;14.70;99236.00;;;;16712334;23;20297;-48
2023/01/01 16:07:47;;;;;;;14.37;11.10;;;;;14.50;99235.00;;;;16517109;28;20227;-47
2023/01/01 16:15:50;;;;;;;13.07;11.10;;;;;14.40;99227.00;;;;16541200;28;20293;-48
2023/01/01 16:23:54;;;;;;;15.40;12.87;;;;;14.30;99225.00;;;;16568354;28;20223;-48
2023/01/01 16:31:57;;;;;;;19.90;14.43;;;;;14.20;99209.00;;;;16539686;28;20224;-48
2023/01/01 16:40:01;;;;;;;12.03;9.67;;;;;14.00;99204.00;;;;16539460;28;20247;-48
2023/01/01 16:48:03;;;;;;;12.50;9.30;;;;;13.50;99211.00;;;;16533157;28;20223;-49
2023/01/01 16:56:08;;;;;;;10.80;7.97;;;;;13.70;99205.00;;;;16528131;28;20718;-49
2023/01/01 17:04:12;;;;;;;11.03;7.73;;;;;13.30;99209.00;;;;16529110;28;20318;-49
2023/01/01 17:12:15;;;;;;;16.97;10.43;;;;;13.40;99195.00;;;;16529677;28;20234;-48
2023/01/01 17:20:18;;;;;;;15.97;12.20;;;;;13.00;99198.00;;;;16522082;28;20365;-49
2023/01/01 17:28:22;;;;;;;19.70;10.07;;;;;12.70;99204.00;;;;16529497;28;20233;-49
2023/01/01 17:36:25;;;;;;;22.50;13.40;;;;;12.70;99198.00;;;;16523769;28;20238;-48
2023/01/01 17:44:30;;;;;;;51.90;29.97;;;;;12.80;99180.00;;;;16516442;28;20286;-48
2023/01/01 17:52:32;;;;;;;100.33;39.00;;;;;12.60;99179.00;;;;16520827;28;20315;-48
2023/01/01 18:00:36;;;;;;;67.43;43.40;;;;;13.00;99184.00;;;;16523515;28;20239;-49
2023/01/01 18:08:38;;;;;;;41.50;23.73;;;;;12.80;99176.00;;;;16534547;28;20307;-48
2023/01/01 18:16:45;;;;;;;39.33;29.33;;;;;12.60;99175.00;;;;16522274;28;20303;-48
2023/01/01 18:24:47;;;;;;;15.57;12.50;;;;;12.70;99174.00;;;;16522128;28;20708;-48
2023/01/01 18:32:52;;;;;;;18.63;13.53;;;;;13.50;99182.00;;;;16520654;28;20314;-49
2023/01/01 18:41:01;;;;;;;14.90;10.03;;;;;13.10;99181.00;;;;16520830;28;20232;-48
2023/01/01 18:49:10;;;;;;;10.53;7.63;;;;;13.30;99174.00;;;;16506425;28;20697;-48
2023/01/01 18:57:18;;;;;;;7.30;6.60;;;;;13.70;99166.00;;;;16513779;28;20231;-49
2023/01/01 19:05:25;;;;;;;9.53;6.63;;;;;12.70;99176.00;;;;16491204;28;20652;-48
2023/01/01 19:13:29;;;;;;;18.97;13.60;;;;;12.50;99187.00;;;;16507046;28;20696;-48
2023/01/01 19:21:34;;;;;;;7.73;6.90;;;;;13.30;99159.00;;;;16493100;28;20222;-47
2023/01/01 19:29:39;;;;;;;9.00;6.27;;;;;13.80;99159.00;;;;16491088;28;20247;-48
2023/01/01 19:37:43;;;;;;;6.67;6.03;;;;;14.20;99138.00;;;;16489868;28;20206;-48
2023/01/01 19:45:45;;;;;;;22.60;17.77;;;;;14.10;99135.00;;;;16488649;28;20228;-48
2023/01/01 19:53:49;;;;;;;4.63;4.00;;;;;14.50;99115.00;;;;16492072;28;20236;-48
2023/01/01 20:01:51;;;;;;;4.87;4.40;;;;;14.50;99115.00;;;;16489056;28;20227;-48
2023/01/01 20:09:55;;;;;;;3.43;3.13;;;;;14.40;99108.00;;;;16487318;28;20874;-48
2023/01/01 20:17:58;;;;;;;3.43;3.13;;;;;14.50;99093.00;;;;16494536;28;20213;-48
2023/01/01 20:26:02;;;;;;;5.07;3.70;;;;;14.50;99103.00;;;;16516906;28;20230;-48
2023/01/01 20:34:05;;;;;;;4.83;3.30;;;;;14.50;99094.00;;;;16499903;28;20236;-48
2023/01/01 20:42:09;;;;;;;6.50;4.60;;;;;14.40;99094.00;;;;16478744;28;20216;-47
2023/01/01 20:50:11;;;;;;;9.80;7.23;;;;;14.00;99086.00;;;;16481766;28;20237;-47
2023/01/01 20:58:15;;;;;;;6.47;5.37;;;;;13.90;99094.00;;;;16480756;28;20208;-48
2023/01/01 21:06:18;;;;;;;6.80;5.10;;;;;13.90;99093.00;;;;16481113;28;20229;-48
2023/01/01 21:14:22;;;;;;;6.70;6.00;;;;;14.20;99114.00;;;;16480957;28;20249;-48
2023/01/01 21:22:27;;;;;;;10.80;7.00;;;;;13.60;99117.00;;;;16476128;28;20246;-48
2023/01/01 21:30:31;;;;;;;6.93;5.53;;;;;13.60;99115.00;;;;16478930;28;20252;-48
2023/01/01 21:38:34;;;;;;;6.57;5.90;;;;;13.70;99117.00;;;;16473383;28;20254;-48
2023/01/01 21:46:41;;;;;;;10.00;6.53;;;;;13.80;99101.00;;;;16530355;28;20223;-48
2023/01/01 21:54:46;;;;;;;10.13;7.43;;;;;13.90;99100.00;;;;16518160;28;20228;-48
2023/01/01 22:02:50;;;;;;;7.60;5.40;;;;;14.00;99097.00;;;;16488297;28;20705;-48
2023/01/01 22:10:53;;;;;;;5.67;4.87;;;;;14.20;99107.00;;;;16481711;28;20220;-48
2023/01/01 22:18:57;;;;;;;7.50;4.90;;;;;14.20;99101.00;;;;16478469;28;20199;-48
2023/01/01 22:27:16;;;;;;;5.90;4.57;;;;;14.20;99101.00;;;;16475404;28;20231;-48
2023/01/01 22:35:23;;;;;;;6.73;4.97;;;;;14.20;99115.00;;;;16477539;28;20638;-48
2023/01/01 22:43:30;;;;;;;6.47;5.47;;;;;14.30;99095.00;;;;16490340;28;20222;-48
2023/01/01 22:51:38;;;;;;;6.87;5.30;;;;;14.30;99099.00;;;;16639907;22;20231;-49
2023/01/01 22:59:40;;;;;;;4.83;4.33;;;;;14.50;99106.00;;;;16638285;28;20230;-49
2023/01/01 23:07:44;;;;;;;5.80;4.87;;;;;14.40;99100.00;;;;16639138;28;20720;-49
2023/01/01 23:16:02;;;;;;;6.90;4.63;;;;;14.40;99093.00;;;;16642903;28;20237;-49
2023/01/01 23:24:10;;;;;;;6.00;4.13;;;;;14.60;99077.00;;;;16645169;28;20609;-49
2023/01/01 23:32:14;;;;;;;7.23;5.40;;;;;14.40;99070.00;;;;16644460;28;20226;-50
2023/01/01 23:40:17;;;;;;;6.83;5.50;;;;;14.30;99061.00;;;;16642671;28;20229;-49
2023/01/01 23:48:20;;;;;;;5.03;4.37;;;;;14.40;99058.00;;;;16621032;28;20219;-48
2023/01/01 23:56:24;;;;;;;4.23;3.83;;;;;14.40;99040.00;;;;16602274;28;20315;-49
